Time;durP1;ratioP1;P1;durP2;ratioP2;P2;SDS_P1;SDS_P2;PMS_P1;PMS_P2;Temp;Humidity;BMP_temperature;BMP_pressure;BME280_temperature;BME280_humidity;BME280_pressure;Samples;Min_cycle;Max_cycle;Signal;HPM_P1;HPM_P2
2022/05/25 00:00:10;;;;;;;;;;;11.10;99.90;;;;;;5031340;28;19951;-78
2022/05/25 00:02:36;;;;;;;;;;;11.10;99.90;;;;;;5031997;28;19928;-78
2022/05/25 00:05:03;;;;;;;;;;;11.10;99.90;;;;;;5055559;28;19939;-78
2022/05/25 00:07:28;;;;;;;;;;;11.10;99.90;;;;;;5012083;28;19954;-78
2022/05/25 00:09:54;;;;;;;;;;;11.00;99.90;;;;;;5029304;28;20053;-78
2022/05/25 00:12:21;;;;;;;;;;;10.80;99.90;;;;;;5048998;28;20415;-78
2022/05/25 00:14:48;;;;;;;;;;;10.80;99.90;;;;;;5050425;28;20583;-78
2022/05/25 00:17:13;;;;;;;;;;;10.60;99.90;;;;;;5051477;28;19975;-78
2022/05/25 00:22:23;;;;;;;;;;;10.80;99.90;;;;;;5046200;28;19928;-78
2022/05/25 00:24:49;;;;;;;;;;;10.80;99.90;;;;;;5061396;28;20427;-78
2022/05/25 00:27:14;;;;;;;;;;;10.80;99.90;;;;;;5061318;28;19931;-78
2022/05/25 00:29:40;;;;;;;;;;;10.70;99.90;;;;;;5061801;28;19954;-78
2022/05/25 00:32:06;;;;;;;;;;;10.70;99.90;;;;;;5063162;28;19994;-78
2022/05/25 00:34:32;;;;;;;;;;;10.70;99.90;;;;;;5063074;28;19997;-78
2022/05/25 00:36:58;;;;;;;;;;;10.80;99.90;;;;;;5043910;28;20374;-78
2022/05/25 00:39:24;;;;;;;;;;;10.80;99.90;;;;;;5062612;28;19978;-78
2022/05/25 00:41:50;;;;;;;;;;;10.80;99.90;;;;;;5064846;28;19953;-78
2022/05/25 00:44:16;;;;;;;;;;;10.80;99.90;;;;;;5048149;28;19976;-78
2022/05/25 00:46:42;;;;;;;;;;;10.80;99.90;;;;;;5067795;28;19932;-78
2022/05/25 00:49:17;;;;;;;;;;;10.80;99.90;;;;;;5047764;28;19944;-78
2022/05/25 00:51:46;;;;;;;;;;;10.80;99.90;;;;;;5048654;28;19934;-78
2022/05/25 00:54:15;;;;;;;;;;;10.60;99.90;;;;;;5064456;28;19932;-78
2022/05/25 00:56:42;;;;;;;;;;;10.60;99.90;;;;;;5067001;28;20415;-78
2022/05/25 00:59:09;;;;;;;;;;;10.60;99.90;;;;;;5044565;28;19928;-78
2022/05/25 01:01:35;;;;;;;;;;;10.50;99.90;;;;;;5064754;28;19928;-78
2022/05/25 01:04:00;;;;;;;;;;;10.40;99.90;;;;;;5048734;28;19935;-78
2022/05/25 01:06:44;;;;;;;;;;;10.40;99.90;;;;;;5068260;28;19932;-78
2022/05/25 01:09:16;;;;;;;;;;;10.40;99.90;;;;;;5065387;28;20422;-78
2022/05/25 01:12:01;;;;;;;;;;;10.30;99.90;;;;;;5057209;28;19979;-78
2022/05/25 01:14:46;;;;;;;;;;;10.30;99.90;;;;;;5052602;28;19928;-78
2022/05/25 01:17:23;;;;;;;;;;;10.20;99.90;;;;;;5053393;28;20864;-78
2022/05/25 01:19:55;;;;;;;;;;;10.10;99.90;;;;;;5037789;28;19973;-78
2022/05/25 01:22:24;;;;;;;;;;;10.30;99.90;;;;;;5052516;28;19928;-78
2022/05/25 01:24:49;;;;;;;;;;;10.30;99.90;;;;;;5053568;28;19928;-78
2022/05/25 01:27:15;;;;;;;;;;;10.30;99.90;;;;;;5032646;28;19939;-78
2022/05/25 01:29:45;;;;;;;;;;;10.30;99.90;;;;;;5033800;28;20360;-78
2022/05/25 01:32:13;;;;;;;;;;;10.40;99.90;;;;;;5051443;28;19928;-78
2022/05/25 01:34:43;;;;;;;;;;;10.30;99.90;;;;;;5017903;28;19932;-78
2022/05/25 01:37:09;;;;;;;;;;;10.30;99.90;;;;;;5033492;28;19990;-78
2022/05/25 01:39:38;;;;;;;;;;;10.30;99.90;;;;;;5050216;28;20476;-78
2022/05/25 01:42:12;;;;;;;;;;;10.20;99.90;;;;;;5015310;28;19928;-78
2022/05/25 01:44:41;;;;;;;;;;;10.10;99.90;;;;;;5048984;28;19928;-78
2022/05/25 01:47:10;;;;;;;;;;;10.10;99.90;;;;;;5033595;28;19939;-78
2022/05/25 01:49:40;;;;;;;;;;;10.10;99.90;;;;;;5047701;28;19972;-78
2022/05/25 01:52:07;;;;;;;;;;;10.00;99.90;;;;;;5030991;28;20361;-78
2022/05/25 01:54:35;;;;;;;;;;;10.00;99.90;;;;;;5030882;28;19935;-78
2022/05/25 01:57:03;;;;;;;;;;;10.00;99.90;;;;;;5048654;28;19935;-78
2022/05/25 01:59:29;;;;;;;;;;;10.10;99.90;;;;;;5051894;28;19993;-78
2022/05/25 02:04:45;;;;;;;;;;;10.20;99.90;;;;;;5032320;28;19928;-78
2022/05/25 02:07:29;;;;;;;;;;;10.20;99.90;;;;;;5032268;28;21056;-78
2022/05/25 02:10:01;;;;;;;;;;;10.10;99.90;;;;;;5051020;28;20463;-78
2022/05/25 02:12:33;;;;;;;;;;;10.00;99.90;;;;;;5065620;28;19978;-78
2022/05/25 02:14:58;;;;;;;;;;;10.20;99.90;;;;;;5064931;28;19935;-78
2022/05/25 02:17:24;;;;;;;;;;;10.00;99.90;;;;;;5066234;28;19928;-78
2022/05/25 02:19:59;;;;;;;;;;;10.10;99.90;;;;;;5066145;28;19967;-78
2022/05/25 02:22:36;;;;;;;;;;;9.90;99.90;;;;;;5048737;28;19928;-78
2022/05/25 02:25:14;;;;;;;;;;;10.00;99.90;;;;;;5047338;28;19931;-78
2022/05/25 02:27:59;;;;;;;;;;;9.80;99.90;;;;;;5067248;28;19935;-79
2022/05/25 02:30:25;;;;;;;;;;;9.90;99.90;;;;;;5067670;28;19928;-78
2022/05/25 02:32:53;;;;;;;;;;;9.90;99.90;;;;;;5047847;28;20456;-78
2022/05/25 02:35:21;;;;;;;;;;;9.80;99.90;;;;;;5049343;28;19928;-78
2022/05/25 02:37:48;;;;;;;;;;;9.70;99.90;;;;;;5048228;28;20028;-78
2022/05/25 02:40:14;;;;;;;;;;;9.70;99.90;;;;;;5048495;28;20431;-78
2022/05/25 02:42:40;;;;;;;;;;;9.70;99.90;;;;;;5047361;28;20721;-78
2022/05/25 02:45:07;;;;;;;;;;;9.70;99.90;;;;;;5065211;28;20463;-78
2022/05/25 02:47:33;;;;;;;;;;;9.70;99.90;;;;;;5049131;28;19952;-78
2022/05/25 02:49:59;;;;;;;;;;;9.70;99.90;;;;;;5067048;28;19928;-78
2022/05/25 02:52:25;;;;;;;;;;;9.70;99.90;;;;;;5048182;28;20027;-78
2022/05/25 02:54:50;;;;;;;;;;;9.70;99.90;;;;;;5048042;28;19928;-77
2022/05/25 02:57:16;;;;;;;;;;;9.70;99.90;;;;;;5047499;28;20218;-78
2022/05/25 02:59:42;;;;;;;;;;;9.60;99.90;;;;;;5048699;28;19928;-77
2022/05/25 03:02:08;;;;;;;;;;;9.60;99.90;;;;;;5063840;28;20331;-78
2022/05/25 03:04:37;;;;;;;;;;;9.70;99.90;;;;;;5046541;28;20446;-77
2022/05/25 03:07:03;;;;;;;;;;;9.60;99.90;;;;;;5064615;28;19929;-78
2022/05/25 03:09:28;;;;;;;;;;;9.70;99.90;;;;;;5068007;28;19928;-77
2022/05/25 03:11:54;;;;;;;;;;;9.70;99.90;;;;;;5065993;28;20396;-78
2022/05/25 03:14:20;;;;;;;;;;;9.60;99.90;;;;;;5046802;28;19937;-79
2022/05/25 03:16:45;;;;;;;;;;;9.70;99.90;;;;;;5049160;28;19928;-78
2022/05/25 03:19:11;;;;;;;;;;;9.70;99.90;;;;;;5045898;28;20408;-78
2022/05/25 03:21:37;;;;;;;;;;;9.70;99.90;;;;;;5066228;28;19935;-78
2022/05/25 03:24:02;;;;;;;;;;;9.70;99.90;;;;;;5064966;28;20630;-78
2022/05/25 03:26:28;;;;;;;;;;;9.60;99.90;;;;;;5064210;28;20606;-78
2022/05/25 03:28:53;;;;;;;;;;;9.60;99.90;;;;;;5046205;28;19928;-78
2022/05/25 03:31:19;;;;;;;;;;;9.60;99.90;;;;;;5047856;28;19939;-77
2022/05/25 03:33:45;;;;;;;;;;;9.60;99.90;;;;;;5046616;28;20011;-77
2022/05/25 03:36:10;;;;;;;;;;;9.60;99.90;;;;;;5064955;28;19928;-77
2022/05/25 03:38:36;;;;;;;;;;;9.60;99.90;;;;;;5065482;28;20350;-78
2022/05/25 03:41:02;;;;;;;;;;;9.60;99.90;;;;;;5044552;28;20362;-77
2022/05/25 03:43:30;;;;;;;;;;;9.70;99.90;;;;;;5062910;28;19928;-78
2022/05/25 03:45:56;;;;;;;;;;;9.70;99.90;;;;;;5045416;28;20388;-77
2022/05/25 03:48:22;;;;;;;;;;;9.70;99.90;;;;;;5066263;28;19989;-78
2022/05/25 03:50:47;;;;;;;;;;;9.70;99.90;;;;;;5064203;28;19927;-78
2022/05/25 03:53:14;;;;;;;;;;;9.70;99.90;;;;;;5046073;28;19977;-77
2022/05/25 03:55:41;;;;;;;;;;;9.70;99.90;;;;;;5046991;28;19929;-78
2022/05/25 03:58:07;;;;;;;;;;;9.70;99.90;;;;;;5065303;28;19932;-78
2022/05/25 04:00:33;;;;;;;;;;;9.70;99.90;;;;;;5046929;28;20714;-79
2022/05/25 04:03:02;;;;;;;;;;;9.80;99.90;;;;;;5047193;28;19931;-78
2022/05/25 04:05:28;;;;;;;;;;;9.80;99.90;;;;;;5065216;28;20408;-78
2022/05/25 04:07:56;;;;;;;;;;;9.80;99.90;;;;;;5064843;28;20396;-78
2022/05/25 04:10:22;;;;;;;;;;;9.80;99.90;;;;;;5065039;28;20385;-78
2022/05/25 04:12:48;;;;;;;;;;;9.80;99.90;;;;;;5065794;28;20043;-79
2022/05/25 04:15:16;;;;;;;;;;;9.90;99.90;;;;;;5047880;28;19993;-79
2022/05/25 04:17:42;;;;;;;;;;;9.90;99.90;;;;;;5045701;28;19935;-78
2022/05/25 04:20:08;;;;;;;;;;;10.00;99.90;;;;;;5064275;28;19927;-78
2022/05/25 04:22:35;;;;;;;;;;;10.00;99.90;;;;;;5046962;28;19956;-77
2022/05/25 04:25:07;;;;;;;;;;;10.00;99.90;;;;;;5061509;28;19928;-78
2022/05/25 04:27:33;;;;;;;;;;;10.00;99.90;;;;;;5063779;28;19923;-77
2022/05/25 04:29:59;;;;;;;;;;;10.10;99.90;;;;;;5062336;28;19935;-78
2022/05/25 04:32:25;;;;;;;;;;;10.10;99.90;;;;;;5064298;28;19928;-78
2022/05/25 04:34:50;;;;;;;;;;;10.20;99.90;;;;;;5064035;28;19928;-77
2022/05/25 04:40:00;;;;;;;;;;;10.40;99.90;;;;;;5064052;28;20397;-78
2022/05/25 04:42:29;;;;;;;;;;;10.40;99.90;;;;;;5065200;28;19932;-78
2022/05/25 04:45:00;;;;;;;;;;;10.60;99.90;;;;;;5062992;28;19963;-78
2022/05/25 04:47:29;;;;;;;;;;;12.50;99.90;;;;;;5065625;28;19928;-78
2022/05/25 04:49:55;;;;;;;;;;;13.90;99.90;;;;;;5047916;28;19928;-78
2022/05/25 04:52:21;;;;;;;;;;;15.10;99.90;;;;;;5062141;28;20282;-78
2022/05/25 04:54:46;;;;;;;;;;;16.00;99.90;;;;;;5063749;28;19932;-77
2022/05/25 04:57:22;;;;;;;;;;;16.50;99.90;;;;;;5063864;28;19951;-79
2022/05/25 04:59:49;;;;;;;;;;;17.00;99.90;;;;;;5063116;28;19972;-77
2022/05/25 05:02:15;;;;;;;;;;;17.00;99.90;;;;;;5044866;28;19981;-77
2022/05/25 05:04:40;;;;;;;;;;;18.10;99.90;;;;;;5064128;28;19936;-77
2022/05/25 05:07:06;;;;;;;;;;;18.80;99.90;;;;;;5047332;28;19957;-77
2022/05/25 05:09:32;;;;;;;;;;;18.70;99.90;;;;;;5047616;28;19928;-77
2022/05/25 05:11:58;;;;;;;;;;;19.30;99.90;;;;;;5064019;28;20448;-78
2022/05/25 05:14:23;;;;;;;;;;;19.10;99.90;;;;;;5064766;28;20001;-78
2022/05/25 05:16:54;;;;;;;;;;;20.00;99.90;;;;;;5066097;28;19928;-77
2022/05/25 05:19:20;;;;;;;;;;;20.10;99.90;;;;;;5064694;28;19932;-78
2022/05/25 05:21:45;;;;;;;;;;;20.10;99.90;;;;;;5046291;28;20399;-78
2022/05/25 05:24:11;;;;;;;;;;;20.30;99.90;;;;;;5046043;28;20093;-77
2022/05/25 05:26:37;;;;;;;;;;;20.30;99.90;;;;;;5067595;28;19971;-78
2022/05/25 05:29:02;;;;;;;;;;;20.20;99.90;;;;;;5064474;28;20043;-77
2022/05/25 05:31:28;;;;;;;;;;;20.80;99.90;;;;;;5066064;28;19980;-78
2022/05/25 05:33:54;;;;;;;;;;;20.30;99.90;;;;;;5067882;28;19971;-79
2022/05/25 05:36:24;;;;;;;;;;;19.90;99.90;;;;;;5067440;28;19935;-77
2022/05/25 05:38:52;;;;;;;;;;;19.80;99.90;;;;;;5031837;28;19936;-77
2022/05/25 05:41:19;;;;;;;;;;;19.90;99.90;;;;;;5069606;28;20399;-77
2022/05/25 05:43:45;;;;;;;;;;;19.30;99.90;;;;;;5066500;28;19986;-77
2022/05/25 05:46:11;;;;;;;;;;;17.60;99.90;;;;;;5031912;28;20491;-76
2022/05/25 05:48:37;;;;;;;;;;;17.60;99.90;;;;;;5066194;28;19958;-76
2022/05/25 05:51:04;;;;;;;;;;;17.20;99.90;;;;;;5068266;28;19932;-78
2022/05/25 05:53:30;;;;;;;;;;;16.70;99.90;;;;;;5051497;28;20649;-77
2022/05/25 05:55:56;;;;;;;;;;;16.60;99.90;;;;;;5067367;28;20010;-77
2022/05/25 05:58:22;;;;;;;;;;;16.30;99.90;;;;;;5068056;28;20905;-77
2022/05/25 06:00:48;;;;;;;;;;;16.30;99.90;;;;;;5068105;28;19934;-77
2022/05/25 06:03:14;;;;;;;;;;;16.20;99.90;;;;;;5048684;28;19935;-77
2022/05/25 06:05:41;;;;;;;;;;;16.20;99.90;;;;;;5048626;28;20073;-77
2022/05/25 06:08:14;;;;;;;;;;;16.30;99.90;;;;;;5050351;28;20039;-76
2022/05/25 06:10:41;;;;;;;;;;;16.40;99.90;;;;;;5048564;28;19951;-77
2022/05/25 06:13:07;;;;;;;;;;;16.10;99.90;;;;;;5064673;28;19932;-77
2022/05/25 06:21:03;;;;;;;;;;;16.40;99.90;;;;;;5047306;28;19928;-77
2022/05/25 06:23:28;;;;;;;;;;;16.50;99.90;;;;;;5064570;28;19963;-77
2022/05/25 06:25:54;;;;;;;;;;;16.40;99.90;;;;;;5045396;28;20010;-77
2022/05/25 06:28:20;;;;;;;;;;;16.30;99.90;;;;;;5045510;28;19928;-77
2022/05/25 06:30:45;;;;;;;;;;;16.40;99.90;;;;;;5066741;28;20026;-77
2022/05/25 06:33:11;;;;;;;;;;;16.60;99.90;;;;;;5065453;28;19928;-77
2022/05/25 06:35:37;;;;;;;;;;;16.60;99.90;;;;;;5050122;28;19954;-77
2022/05/25 06:38:03;;;;;;;;;;;16.50;99.90;;;;;;5068052;28;19928;-76
2022/05/25 06:40:29;;;;;;;;;;;16.60;99.90;;;;;;5067544;28;19932;-76
2022/05/25 06:42:54;;;;;;;;;;;16.80;99.90;;;;;;5049851;28;19928;-76
2022/05/25 06:45:20;;;;;;;;;;;16.90;99.90;;;;;;5049825;28;19924;-76
2022/05/25 06:47:45;;;;;;;;;;;16.80;99.90;;;;;;5066807;28;19928;-79
2022/05/25 06:50:11;;;;;;;;;;;17.10;99.90;;;;;;5065010;28;19928;-79
2022/05/25 06:52:37;;;;;;;;;;;17.30;99.90;;;;;;5049567;28;20055;-79
2022/05/25 06:55:03;;;;;;;;;;;17.00;99.90;;;;;;5067019;28;19928;-79
2022/05/25 06:57:29;;;;;;;;;;;17.20;99.90;;;;;;5068402;28;19934;-78
2022/05/25 06:59:55;;;;;;;;;;;17.30;99.90;;;;;;5066981;28;19951;-79
2022/05/25 07:02:20;;;;;;;;;;;17.50;99.90;;;;;;5050063;28;20723;-77
2022/05/25 07:04:46;;;;;;;;;;;17.70;99.90;;;;;;5067042;28;20009;-77
2022/05/25 07:07:12;;;;;;;;;;;17.70;99.90;;;;;;5067102;28;19932;-78
2022/05/25 07:09:39;;;;;;;;;;;17.60;99.90;;;;;;5066018;28;19931;-78
2022/05/25 07:12:05;;;;;;;;;;;17.50;99.90;;;;;;5048132;28;20513;-78
2022/05/25 07:14:31;;;;;;;;;;;17.90;99.90;;;;;;5048240;28;20301;-78
2022/05/25 07:16:59;;;;;;;;;;;17.80;99.90;;;;;;5067118;28;19932;-78
2022/05/25 07:19:24;;;;;;;;;;;17.60;99.90;;;;;;5043958;28;20366;-77
2022/05/25 07:21:50;;;;;;;;;;;17.70;99.90;;;;;;5027906;28;19935;-77
2022/05/25 07:24:16;;;;;;;;;;;17.90;99.90;;;;;;5033489;28;20227;-78
2022/05/25 07:26:42;;;;;;;;;;;18.10;99.90;;;;;;5042943;28;19929;-76
2022/05/25 07:29:07;;;;;;;;;;;18.10;99.90;;;;;;5043637;28;19939;-78
2022/05/25 07:31:39;;;;;;;;;;;18.10;99.90;;;;;;5015615;28;20019;-77
2022/05/25 07:34:16;;;;;;;;;;;18.40;99.90;;;;;;5026353;28;19970;-79
2022/05/25 07:36:43;;;;;;;;;;;18.00;99.90;;;;;;5020609;28;19939;-77
2022/05/25 07:39:11;;;;;;;;;;;18.50;99.90;;;;;;5007299;28;19994;-77
2022/05/25 07:41:39;;;;;;;;;;;18.70;99.90;;;;;;5012671;28;19987;-76
2022/05/25 07:44:05;;;;;;;;;;;18.40;99.90;;;;;;5034398;28;19972;-77
2022/05/25 07:46:31;;;;;;;;;;;18.10;99.90;;;;;;5037673;28;20356;-77
2022/05/25 07:48:56;;;;;;;;;;;18.50;99.90;;;;;;5029307;28;20205;-77
2022/05/25 07:51:24;;;;;;;;;;;18.30;99.90;;;;;;5034484;28;20473;-78
2022/05/25 07:53:58;;;;;;;;;;;18.60;99.90;;;;;;5027140;28;19935;-79
2022/05/25 07:56:34;;;;;;;;;;;18.20;99.90;;;;;;5043317;28;19951;-77
2022/05/25 07:59:00;;;;;;;;;;;18.00;99.90;;;;;;5042757;28;19936;-76
2022/05/25 08:06:59;;;;;;;;;;;18.70;99.90;;;;;;5012346;28;19928;-80
2022/05/25 08:09:25;;;;;;;;;;;18.50;99.90;;;;;;5021034;28;19939;-77
2022/05/25 08:11:51;;;;;;;;;;;18.90;99.90;;;;;;5015689;28;19963;-79
2022/05/25 08:14:16;;;;;;;;;;;18.70;99.90;;;;;;5015030;28;20079;-76
2022/05/25 08:16:42;;;;;;;;;;;18.10;99.90;;;;;;5030556;28;20027;-76
2022/05/25 08:19:08;;;;;;;;;;;18.00;99.90;;;;;;5030872;28;19932;-76
2022/05/25 08:21:33;;;;;;;;;;;17.60;99.90;;;;;;5036423;28;19979;-75
2022/05/25 08:23:59;;;;;;;;;;;17.60;99.90;;;;;;5032522;28;19967;-79
2022/05/25 08:26:24;;;;;;;;;;;17.30;99.90;;;;;;5033558;28;19978;-78
2022/05/25 08:28:51;;;;;;;;;;;17.30;99.90;;;;;;5028905;28;20727;-77
2022/05/25 08:31:17;;;;;;;;;;;17.70;99.90;;;;;;4994496;28;19932;-78
2022/05/25 08:33:43;;;;;;;;;;;17.30;99.90;;;;;;5014216;28;19936;-77
2022/05/25 08:36:09;;;;;;;;;;;17.90;99.90;;;;;;5029787;28;20023;-77
2022/05/25 08:38:35;;;;;;;;;;;17.90;99.90;;;;;;5031553;28;19928;-76
2022/05/25 08:41:00;;;;;;;;;;;17.60;99.90;;;;;;5011763;28;20846;-77
2022/05/25 08:43:40;;;;;;;;;;;17.20;99.90;;;;;;5028536;28;19939;-78
2022/05/25 08:46:07;;;;;;;;;;;17.70;99.90;;;;;;5008178;28;19932;-78
2022/05/25 08:48:33;;;;;;;;;;;18.00;99.90;;;;;;5011110;28;19925;-75
2022/05/25 08:51:02;;;;;;;;;;;18.20;99.90;;;;;;5013126;28;20441;-77
2022/05/25 08:53:28;;;;;;;;;;;18.50;99.90;;;;;;5005115;28;19936;-80
2022/05/25 08:56:23;;;;;;;;;;;18.90;99.90;;;;;;5009562;28;20275;-76
2022/05/25 08:59:02;;;;;;;;;;;19.30;99.90;;;;;;4923451;28;20160;-78
2022/05/25 09:01:41;;;;;;;;;;;19.10;99.90;;;;;;5018549;28;20025;-78
2022/05/25 09:04:26;;;;;;;;;;;19.20;99.90;;;;;;5038089;28;19933;-77
2022/05/25 09:07:02;;;;;;;;;;;19.40;99.90;;;;;;5009846;28;20063;-78
2022/05/25 09:09:37;;;;;;;;;;;19.30;99.90;;;;;;5034065;28;20271;-78
2022/05/25 09:12:05;;;;;;;;;;;19.40;99.90;;;;;;5036090;28;19951;-77
2022/05/25 09:14:33;;;;;;;;;;;19.70;99.90;;;;;;5037199;28;19929;-77
2022/05/25 09:17:00;;;;;;;;;;;19.40;99.90;;;;;;5037492;28;19940;-76
2022/05/25 09:19:31;;;;;;;;;;;19.60;99.90;;;;;;5030929;28;19938;-81
2022/05/25 09:22:05;;;;;;;;;;;19.50;99.90;;;;;;5018223;28;19933;-83
2022/05/25 09:24:31;;;;;;;;;;;19.60;99.90;;;;;;5033185;28;19929;-77
2022/05/25 09:26:58;;;;;;;;;;;19.30;99.90;;;;;;5034952;28;19962;-78
2022/05/25 09:29:24;;;;;;;;;;;19.40;99.90;;;;;;5037578;28;20627;-78
2022/05/25 09:32:01;;;;;;;;;;;19.10;99.90;;;;;;5016095;28;19928;-77
2022/05/25 09:34:27;;;;;;;;;;;18.80;99.90;;;;;;5035876;28;20007;-77
2022/05/25 09:36:56;;;;;;;;;;;18.70;99.90;;;;;;5038418;28;19932;-76
2022/05/25 09:39:23;;;;;;;;;;;18.70;99.90;;;;;;5036401;28;20290;-77
2022/05/25 09:41:53;;;;;;;;;;;18.50;99.90;;;;;;5037911;28;19963;-77
2022/05/25 09:44:19;;;;;;;;;;;18.30;99.90;;;;;;5028091;28;20861;-78
2022/05/25 09:46:50;;;;;;;;;;;18.20;99.90;;;;;;5016733;28;20010;-76
2022/05/25 09:49:34;;;;;;;;;;;18.60;99.90;;;;;;5031785;28;20393;-77
2022/05/25 09:52:06;;;;;;;;;;;18.90;99.90;;;;;;5030471;28;20360;-78
2022/05/25 09:54:33;;;;;;;;;;;19.20;99.90;;;;;;5031399;28;19932;-76
2022/05/25 09:57:06;;;;;;;;;;;18.90;99.90;;;;;;4997007;28;19929;-76
2022/05/25 09:59:47;;;;;;;;;;;19.40;99.90;;;;;;5029295;28;19939;-76
2022/05/25 10:02:22;;;;;;;;;;;19.30;99.90;;;;;;5028346;28;20385;-77
2022/05/25 10:04:55;;;;;;;;;;;19.10;99.90;;;;;;5029150;28;19971;-77
2022/05/25 10:07:35;;;;;;;;;;;19.30;99.90;;;;;;5006526;28;20347;-78
2022/05/25 10:10:02;;;;;;;;;;;19.80;99.90;;;;;;5030785;28;20078;-77
2022/05/25 10:12:33;;;;;;;;;;;19.90;99.90;;;;;;5030458;28;20012;-78
2022/05/25 10:15:05;;;;;;;;;;;20.10;99.90;;;;;;5022632;28;20098;-76
2022/05/25 10:17:30;;;;;;;;;;;20.10;99.90;;;;;;5014996;28;19929;-75
2022/05/25 10:19:57;;;;;;;;;;;19.80;99.90;;;;;;5014558;28;19939;-76
2022/05/25 10:22:23;;;;;;;;;;;19.80;99.90;;;;;;5009119;28;19932;-75
2022/05/25 10:24:57;;;;;;;;;;;18.80;99.90;;;;;;5028117;28;19928;-76
2022/05/25 10:27:28;;;;;;;;;;;18.80;99.90;;;;;;5029118;28;19939;-79
2022/05/25 10:38:24;;;;;;;;;;;19.70;99.90;;;;;;5014757;28;20385;-75
2022/05/25 10:40:49;;;;;;;;;;;19.40;99.90;;;;;;5015249;28;20436;-77
2022/05/25 10:43:17;;;;;;;;;;;19.00;99.90;;;;;;5022737;28;19982;-78
2022/05/25 10:45:51;;;;;;;;;;;18.70;99.90;;;;;;5024954;28;19939;-77
2022/05/25 10:48:43;;;;;;;;;;;18.30;99.90;;;;;;5024390;28;19994;-76
2022/05/25 10:51:11;;;;;;;;;;;18.10;99.90;;;;;;5006928;28;19972;-77
2022/05/25 10:53:36;;;;;;;;;;;18.00;99.90;;;;;;5006940;28;20430;-77
2022/05/25 10:56:16;;;;;;;;;;;17.90;99.90;;;;;;5022253;28;19933;-77
2022/05/25 10:59:08;;;;;;;;;;;18.20;99.90;;;;;;4992529;28;19975;-78
2022/05/25 11:01:40;;;;;;;;;;;19.10;99.90;;;;;;5020865;28;19983;-76
2022/05/25 11:04:24;;;;;;;;;;;19.20;99.90;;;;;;5017761;28;19959;-76
2022/05/25 11:06:56;;;;;;;;;;;18.80;99.90;;;;;;5023787;28;20066;-76
2022/05/25 11:09:48;;;;;;;;;;;18.20;99.90;;;;;;5006068;28;20453;-77
2022/05/25 11:12:13;;;;;;;;;;;17.90;99.90;;;;;;5025096;28;19925;-77
2022/05/25 11:14:58;;;;;;;;;;;17.80;99.90;;;;;;5024199;28;20724;-77
2022/05/25 11:17:42;;;;;;;;;;;17.80;99.90;;;;;;5010332;28;19928;-74
2022/05/25 11:20:17;;;;;;;;;;;18.60;99.90;;;;;;5025857;28;19936;-75
2022/05/25 11:22:42;;;;;;;;;;;19.70;99.90;;;;;;5023551;28;20427;-75
2022/05/25 11:25:26;;;;;;;;;;;20.10;99.90;;;;;;5027232;28;19985;-76
2022/05/25 11:28:19;;;;;;;;;;;20.60;99.90;;;;;;5008637;28;20348;-75
2022/05/25 11:30:45;;;;;;;;;;;20.70;99.90;;;;;;5016619;28;19997;-77
2022/05/25 11:33:32;;;;;;;;;;;20.80;99.90;;;;;;5024284;28;19928;-76
2022/05/25 11:36:04;;;;;;;;;;;21.10;99.90;;;;;;5028138;28;19933;-79
2022/05/25 11:38:43;;;;;;;;;;;21.10;99.90;;;;;;5011681;28;19928;-78
2022/05/25 11:41:08;;;;;;;;;;;21.20;99.90;;;;;;5023965;28;20331;-76
2022/05/25 11:43:34;;;;;;;;;;;21.40;99.90;;;;;;5022457;28;20735;-77
2022/05/25 11:45:59;;;;;;;;;;;21.50;99.90;;;;;;5031873;28;19979;-78
2022/05/25 11:48:28;;;;;;;;;;;21.00;99.90;;;;;;5017043;28;19952;-76
2022/05/25 11:51:09;;;;;;;;;;;20.60;99.90;;;;;;5033165;28;19932;-77
2022/05/25 11:53:35;;;;;;;;;;;20.60;99.90;;;;;;5014673;28;19964;-79
2022/05/25 11:56:06;;;;;;;;;;;20.30;99.90;;;;;;5014688;28;20117;-78
2022/05/25 11:58:40;;;;;;;;;;;20.50;99.90;;;;;;5028000;28;19929;-78
2022/05/25 12:01:09;;;;;;;;;;;20.50;99.90;;;;;;5021195;28;19928;-76
2022/05/25 12:03:53;;;;;;;;;;;21.00;99.90;;;;;;5031783;28;20886;-77
2022/05/25 12:06:39;;;;;;;;;;;21.60;99.90;;;;;;5016222;28;20297;-78
2022/05/25 12:09:23;;;;;;;;;;;21.00;99.90;;;;;;5033636;28;19928;-80
2022/05/25 12:12:03;;;;;;;;;;;20.90;99.90;;;;;;5033063;28;20334;-80
2022/05/25 12:14:28;;;;;;;;;;;20.70;99.90;;;;;;5014888;28;19968;-79
2022/05/25 12:16:56;;;;;;;;;;;20.40;99.90;;;;;;5013168;28;20051;-78
2022/05/25 12:19:26;;;;;;;;;;;20.00;99.90;;;;;;5033650;28;19928;-78
2022/05/25 12:21:53;;;;;;;;;;;19.90;99.90;;;;;;5014057;28;20937;-77
2022/05/25 12:24:20;;;;;;;;;;;19.70;99.90;;;;;;5015520;28;19928;-78
2022/05/25 12:26:46;;;;;;;;;;;19.40;99.90;;;;;;5026194;28;20292;-78
2022/05/25 12:29:15;;;;;;;;;;;18.90;99.90;;;;;;5029876;28;19935;-78
2022/05/25 12:31:42;;;;;;;;;;;18.80;99.90;;;;;;5030498;28;19928;-78
2022/05/25 12:34:16;;;;;;;;;;;18.70;99.90;;;;;;5030918;28;20031;-77
2022/05/25 12:36:42;;;;;;;;;;;18.70;99.90;;;;;;5013030;28;19938;-77
2022/05/25 12:39:09;;;;;;;;;;;18.70;99.90;;;;;;5018074;28;19924;-79
2022/05/25 12:41:38;;;;;;;;;;;18.50;99.90;;;;;;5034427;28;19928;-77
2022/05/25 12:48:30;;;;;;;;;;;18.40;99.90;;;;;;5030277;28;20500;-79
2022/05/25 12:49:53;;;;;;;;;;;19.00;99.90;;;;;;5004569;28;20027;-78
2022/05/25 12:52:28;;;;;;;;;;;19.50;99.90;;;;;;5026255;28;20304;-78
2022/05/25 12:55:07;;;;;;;;;;;19.60;99.90;;;;;;5028958;28;19932;-78
2022/05/25 12:57:44;;;;;;;;;;;19.50;99.90;;;;;;4991261;28;19939;-78
2022/05/25 13:00:33;;;;;;;;;;;19.50;99.90;;;;;;5026950;28;20551;-79
2022/05/25 13:03:17;;;;;;;;;;;19.30;99.90;;;;;;5016348;28;20619;-81
2022/05/25 13:05:44;;;;;;;;;;;19.20;99.90;;;;;;5015427;28;20037;-79
2022/05/25 13:08:30;;;;;;;;;;;19.10;99.90;;;;;;5035631;28;19928;-79
2022/05/25 13:10:55;;;;;;;;;;;18.70;99.90;;;;;;5025398;28;19929;-78
2022/05/25 13:13:24;;;;;;;;;;;18.70;99.90;;;;;;5028957;28;19932;-79
2022/05/25 13:15:50;;;;;;;;;;;18.80;99.90;;;;;;5009607;28;19928;-78
2022/05/25 13:18:35;;;;;;;;;;;18.90;99.90;;;;;;5024339;28;19929;-78
2022/05/25 13:21:01;;;;;;;;;;;19.00;99.90;;;;;;4995595;28;19929;-79
2022/05/25 13:23:46;;;;;;;;;;;18.90;99.90;;;;;;5004264;28;19935;-80
2022/05/25 13:26:12;;;;;;;;;;;18.90;99.90;;;;;;4946718;28;19933;-80
2022/05/25 13:28:49;;;;;;;;;;;18.70;99.90;;;;;;4996978;28;19935;-78
2022/05/25 13:31:24;;;;;;;;;;;18.30;99.90;;;;;;5019148;28;19928;-77
2022/05/25 13:33:50;;;;;;;;;;;18.00;99.90;;;;;;5003606;28;19935;-79
2022/05/25 13:36:15;;;;;;;;;;;18.10;99.90;;;;;;5022905;28;20462;-80
2022/05/25 13:39:03;;;;;;;;;;;18.40;99.90;;;;;;5030136;28;20309;-80
2022/05/25 13:41:35;;;;;;;;;;;18.40;99.90;;;;;;5001289;28;19935;-77
2022/05/25 13:44:02;;;;;;;;;;;18.10;99.90;;;;;;5005419;28;19929;-78
2022/05/25 13:46:28;;;;;;;;;;;17.90;99.90;;;;;;5022767;28;19944;-79
2022/05/25 13:48:54;;;;;;;;;;;17.60;99.90;;;;;;4998934;28;19925;-78
2022/05/25 13:51:20;;;;;;;;;;;17.50;99.90;;;;;;5024864;28;20063;-77
2022/05/25 13:53:46;;;;;;;;;;;17.30;99.90;;;;;;5006830;28;19925;-79
2022/05/25 13:56:13;;;;;;;;;;;17.40;99.90;;;;;;4992704;28;19935;-77
2022/05/25 13:58:46;;;;;;;;;;;18.50;99.90;;;;;;5021142;28;19959;-78
2022/05/25 14:01:13;;;;;;;;;;;19.10;99.90;;;;;;5020149;28;20953;-76
2022/05/25 14:03:43;;;;;;;;;;;19.20;99.90;;;;;;5024197;28;19935;-77
2022/05/25 14:06:13;;;;;;;;;;;19.10;99.90;;;;;;5003159;28;19929;-78
2022/05/25 14:11:45;;;;;;;;;;;19.30;99.90;;;;;;4977434;28;19929;-80
2022/05/25 14:14:31;;;;;;;;;;;19.80;99.90;;;;;;5023216;28;19933;-77
2022/05/25 14:17:16;;;;;;;;;;;19.60;99.90;;;;;;5010229;28;20483;-78
2022/05/25 14:19:46;;;;;;;;;;;19.40;99.90;;;;;;5027496;28;19978;-79
2022/05/25 14:22:13;;;;;;;;;;;19.30;99.90;;;;;;5033008;28;19929;-78
2022/05/25 14:24:47;;;;;;;;;;;19.20;99.90;;;;;;5011707;28;19982;-79
2022/05/25 14:27:18;;;;;;;;;;;18.90;99.90;;;;;;5029639;28;19939;-78
2022/05/25 14:29:45;;;;;;;;;;;18.60;99.90;;;;;;5011711;28;19925;-76
2022/05/25 14:32:15;;;;;;;;;;;18.20;99.90;;;;;;5014075;28;19929;-79
2022/05/25 14:34:42;;;;;;;;;;;18.20;99.90;;;;;;5024568;28;20564;-77
2022/05/25 14:37:08;;;;;;;;;;;18.20;99.90;;;;;;5025439;28;19932;-78
2022/05/25 14:39:36;;;;;;;;;;;18.20;99.90;;;;;;5031109;28;19979;-79
2022/05/25 14:42:04;;;;;;;;;;;18.10;99.90;;;;;;5013942;28;20051;-77
2022/05/25 14:44:38;;;;;;;;;;;18.00;99.90;;;;;;5029150;28;19929;-80
2022/05/25 14:47:10;;;;;;;;;;;18.00;99.90;;;;;;5025195;28;19928;-78
2022/05/25 14:49:36;;;;;;;;;;;18.00;99.90;;;;;;5005373;28;20149;-78
2022/05/25 14:52:02;;;;;;;;;;;17.90;99.90;;;;;;5034539;28;19979;-77
2022/05/25 14:54:28;;;;;;;;;;;17.90;99.90;;;;;;5012770;28;19932;-79
2022/05/25 14:56:54;;;;;;;;;;;17.90;99.90;;;;;;5022248;28;20393;-77
2022/05/25 14:59:31;;;;;;;;;;;18.00;99.90;;;;;;5030983;28;20896;-78
2022/05/25 15:01:58;;;;;;;;;;;18.00;99.90;;;;;;5012192;28;19959;-78
2022/05/25 15:04:32;;;;;;;;;;;18.00;99.90;;;;;;5012447;28;20003;-80